Nearby METAR Reports

 

ENRY - Rygge (nor-Afb), Norway
Distance from station: 0 24km
Updated: 27/05/2020 17:20
Clear
Clear
 Wind from NW
Wind: NW 13 km/h
Temperature: 18°C
Dew Point: 1°C
Humidity: 32%
Barometer: 1028 hPa
Summary: Clear
Visibility: greater than 10 km
2020/05/27 15:20 ENRY 271520Z 32007KT 280V350 CAVOK 18/01 Q1028
ENTO - Torp (civ/Nor-Af, Norway
Distance from station: W 29km
Updated: 27/05/2020 17:20
Clear
Clear
 Wind from NNW
Wind: NNW 22 km/h
Temperature: 17°C
Dew Point: 2°C
Humidity: 37%
Barometer: 1028 hPa
Summary: Clear
Visibility: greater than 10 km
2020/05/27 15:20 ENTO 271520Z 34012KT 280V360 CAVOK 17/02 Q1028 NOSIG
 
ENSN - Skien/Geiterygge, Norway
Distance from station: W 68km
Updated: 09/11/2015 09:50
NOT Current
Clear
Clear
 Wind from SSW
Wind: SSW 19 km/h, Gust: 41 km/h
Temperature: 7°C
Wind Chill: 4°C
Dew Point: 3°C
Humidity: 76%
Barometer: 1000 hPa
Summary: Clear
Visibility: greater than 10 km
2015/11/09 08:50 ENSN 090850Z 20010G22KT 150V240 CAVOK 07/03 Q1000